createdAt,value
2018-12-29T00:01:39.603Z,80.82
2018-12-29T00:04:08.198Z,80.71
2018-12-29T00:06:36.308Z,80.77
2018-12-29T00:09:04.798Z,80.57
2018-12-29T00:11:33.139Z,80.66
2018-12-29T00:14:02.518Z,80.62
2018-12-29T00:16:29.890Z,80.63
2018-12-29T00:18:58.268Z,80.66
2018-12-29T00:21:26.930Z,80.60
2018-12-29T00:23:55.261Z,80.61
2018-12-29T00:26:23.728Z,80.59
2018-12-29T00:28:52.149Z,80.78
2018-12-29T00:31:20.484Z,80.79
2018-12-29T00:33:48.964Z,80.86
2018-12-29T00:36:17.600Z,80.82
2018-12-29T00:38:45.918Z,80.90
2018-12-29T00:41:14.369Z,80.98
2018-12-29T00:43:42.986Z,81.04
2018-12-29T00:46:11.851Z,81.16
2018-12-29T00:48:41.292Z,81.23
2018-12-29T00:51:08.831Z,81.29
2018-12-29T00:53:37.489Z,81.31
2018-12-29T00:56:05.776Z,81.37
2018-12-29T00:58:34.672Z,81.23
2018-12-29T01:01:03.032Z,81.21
2018-12-29T01:03:31.514Z,81.15
2018-12-29T01:06:00.792Z,81.24
2018-12-29T01:08:28.214Z,80.97
2018-12-29T01:10:56.618Z,80.79
2018-12-29T01:13:25.240Z,80.83
2018-12-29T01:15:53.642Z,80.84
2018-12-29T01:18:22.254Z,80.86
2018-12-29T01:20:50.737Z,81.16
2018-12-29T01:23:19.127Z,81.24
2018-12-29T01:25:47.476Z,81.39
2018-12-29T01:28:15.866Z,81.42
2018-12-29T01:30:44.249Z,81.57
2018-12-29T01:33:12.624Z,81.74
2018-12-29T01:35:42.544Z,81.90
2018-12-29T01:38:09.692Z,81.87
2018-12-29T01:40:38.037Z,81.91
2018-12-29T01:43:06.707Z,81.89
2018-12-29T01:45:34.812Z,82.00
2018-12-29T01:48:03.223Z,81.98
2018-12-29T01:50:31.584Z,82.06
2018-12-29T01:53:00.085Z,82.10
2018-12-29T01:55:28.410Z,82.19
2018-12-29T01:57:56.747Z,82.22
2018-12-29T02:00:25.091Z,82.14
2018-12-29T02:02:53.422Z,82.14
2018-12-29T02:05:21.970Z,82.30
2018-12-29T02:07:50.074Z,82.33
2018-12-29T02:10:18.414Z,82.39
2018-12-29T02:12:46.742Z,82.39
2018-12-29T02:15:15.069Z,82.56
2018-12-29T02:17:43.400Z,82.49
2018-12-29T02:20:11.713Z,82.39
2018-12-29T02:22:40.050Z,82.51
2018-12-29T02:25:08.372Z,82.51
2018-12-29T02:27:36.703Z,82.57
2018-12-29T02:30:05.249Z,82.67
2018-12-29T02:32:33.350Z,82.63
2018-12-29T02:35:01.662Z,82.70
2018-12-29T02:37:30.024Z,82.62
2018-12-29T02:39:58.334Z,82.58
2018-12-29T02:42:26.659Z,82.63
2018-12-29T02:44:54.971Z,82.64
2018-12-29T02:47:23.295Z,82.66
2018-12-29T02:49:51.635Z,82.58
2018-12-29T02:52:19.956Z,82.57
2018-12-29T02:54:48.298Z,82.55
2018-12-29T02:57:16.631Z,82.53
2018-12-29T02:59:44.961Z,82.64
2018-12-29T03:02:13.283Z,82.64
2018-12-29T03:04:41.891Z,82.62
2018-12-29T03:07:10.245Z,82.66
2018-12-29T03:09:38.584Z,82.59
2018-12-29T03:12:06.928Z,82.65
2018-12-29T03:14:35.712Z,82.61
2018-12-29T03:17:04.159Z,82.56
2018-12-29T03:19:32.494Z,82.31
2018-12-29T03:22:00.839Z,82.22
2018-12-29T03:24:29.204Z,82.30
2018-12-29T03:26:57.528Z,82.30
2018-12-29T03:29:25.870Z,82.42
2018-12-29T03:31:54.197Z,82.37
2018-12-29T03:34:22.525Z,82.41
2018-12-29T03:36:50.857Z,82.42
2018-12-29T03:39:19.189Z,82.49
2018-12-29T03:41:49.488Z,82.53
2018-12-29T03:44:17.812Z,82.38
2018-12-29T03:46:46.155Z,82.30
2018-12-29T03:49:14.490Z,82.17
2018-12-29T03:51:42.795Z,81.79
2018-12-29T03:54:11.114Z,81.64
2018-12-29T03:56:39.445Z,81.79
2018-12-29T03:59:07.788Z,81.98
2018-12-29T04:01:36.112Z,81.87
2018-12-29T04:04:04.437Z,81.94
2018-12-29T04:06:32.778Z,81.95
2018-12-29T04:09:12.767Z,81.99
2018-12-29T04:11:41.088Z,82.07
2018-12-29T04:14:09.419Z,81.99
2018-12-29T04:16:37.756Z,82.04
2018-12-29T04:19:06.091Z,82.20
2018-12-29T04:21:34.431Z,82.29
2018-12-29T04:24:02.742Z,82.31
2018-12-29T04:26:31.053Z,82.32
2018-12-29T04:28:59.377Z,82.28
2018-12-29T04:31:27.733Z,82.26
2018-12-29T04:33:56.419Z,82.33
2018-12-29T04:36:25.321Z,82.35
2018-12-29T04:38:53.914Z,82.51
2018-12-29T04:41:22.215Z,82.56
2018-12-29T04:43:50.814Z,82.39
2018-12-29T04:46:19.124Z,82.47
2018-12-29T04:48:47.454Z,82.46
2018-12-29T04:51:15.781Z,82.52
2018-12-29T04:53:44.105Z,82.48
2018-12-29T04:56:12.424Z,82.36
2018-12-29T04:58:40.761Z,82.12
2018-12-29T05:01:09.314Z,82.13
2018-12-29T05:03:37.636Z,81.92
2018-12-29T05:06:05.962Z,81.97
2018-12-29T05:08:34.277Z,81.83
2018-12-29T05:11:02.608Z,81.85
2018-12-29T05:13:30.937Z,81.57
2018-12-29T05:15:59.263Z,81.59
2018-12-29T05:18:27.592Z,81.66
2018-12-29T05:20:55.910Z,81.62
2018-12-29T05:23:24.247Z,81.63
2018-12-29T05:25:53.574Z,81.41
2018-12-29T05:28:21.912Z,81.27
2018-12-29T05:30:50.228Z,81.09
2018-12-29T05:33:18.539Z,81.07
2018-12-29T05:35:46.872Z,80.90
2018-12-29T05:38:15.192Z,80.67
2018-12-29T05:40:43.516Z,80.59
2018-12-29T05:43:11.844Z,80.47
2018-12-29T05:45:40.171Z,80.45
2018-12-29T05:48:08.504Z,80.43
2018-12-29T05:50:36.864Z,80.42
2018-12-29T05:53:05.213Z,80.49
2018-12-29T05:55:33.522Z,80.30
2018-12-29T05:58:01.867Z,80.54
2018-12-29T06:00:30.181Z,80.64
2018-12-29T06:02:58.500Z,80.75
2018-12-29T06:05:26.832Z,80.80
2018-12-29T06:07:55.188Z,80.86
2018-12-29T06:10:23.530Z,80.87
2018-12-29T06:12:51.857Z,80.98
2018-12-29T06:15:20.648Z,81.08
2018-12-29T06:17:48.991Z,81.09
2018-12-29T06:20:17.325Z,81.07
2018-12-29T06:22:45.652Z,80.98
2018-12-29T06:25:14.052Z,80.91
2018-12-29T06:27:47.489Z,80.88
2018-12-29T06:30:16.395Z,80.80
2018-12-29T06:32:45.943Z,80.59
2018-12-29T06:35:14.520Z,80.64
2018-12-29T06:37:42.737Z,80.45
2018-12-29T06:40:11.066Z,80.40
2018-12-29T06:42:39.380Z,80.30
2018-12-29T06:45:07.730Z,80.44
2018-12-29T06:47:36.071Z,80.43
2018-12-29T06:50:04.396Z,80.38
2018-12-29T06:52:34.665Z,80.45
2018-12-29T06:55:02.052Z,80.56
2018-12-29T06:57:31.337Z,80.59
2018-12-29T07:00:01.234Z,80.72
2018-12-29T07:02:29.611Z,80.81
2018-12-29T07:04:57.931Z,80.77
2018-12-29T07:07:26.257Z,80.96
2018-12-29T07:09:54.589Z,81.12
2018-12-29T07:12:22.957Z,81.03
2018-12-29T07:14:51.340Z,81.06
2018-12-29T07:17:19.690Z,81.21
2018-12-29T07:19:48.036Z,81.23
2018-12-29T07:22:16.347Z,81.24
2018-12-29T07:24:44.676Z,81.27
2018-12-29T07:27:12.989Z,81.11
2018-12-29T07:29:41.313Z,80.99
2018-12-29T07:32:09.694Z,80.93
2018-12-29T07:34:37.980Z,80.97
2018-12-29T07:37:06.322Z,81.06
2018-12-29T07:39:34.652Z,81.03
2018-12-29T07:42:02.959Z,81.06
2018-12-29T07:44:31.299Z,80.98
2018-12-29T07:46:59.619Z,81.00
2018-12-29T07:49:27.997Z,80.91
2018-12-29T07:51:56.293Z,80.75
2018-12-29T07:54:24.625Z,80.86
2018-12-29T07:56:53.204Z,80.80
2018-12-29T07:59:21.309Z,80.88
2018-12-29T08:01:49.635Z,80.76
2018-12-29T08:04:17.952Z,80.62
2018-12-29T08:06:46.276Z,80.46
2018-12-29T08:09:14.595Z,80.38
2018-12-29T08:11:42.930Z,80.24
2018-12-29T08:14:11.261Z,80.22
2018-12-29T08:16:39.593Z,80.28
2018-12-29T08:19:07.912Z,80.12
2018-12-29T08:21:36.234Z,79.79
2018-12-29T08:24:04.569Z,79.54
2018-12-29T08:26:32.890Z,79.46
2018-12-29T08:29:01.226Z,79.52
2018-12-29T08:31:29.541Z,79.68
2018-12-29T08:33:57.873Z,79.69
2018-12-29T08:36:26.206Z,79.87
2018-12-29T08:38:54.531Z,79.85
2018-12-29T08:41:22.860Z,79.72
2018-12-29T08:43:51.191Z,79.72
2018-12-29T08:46:19.521Z,79.51
2018-12-29T08:48:48.831Z,79.66
2018-12-29T08:51:17.162Z,79.69
2018-12-29T08:53:45.468Z,79.83
2018-12-29T08:56:13.790Z,79.88
2018-12-29T08:58:42.118Z,79.99
2018-12-29T09:01:10.435Z,80.07
2018-12-29T09:03:38.765Z,80.04
2018-12-29T09:06:07.097Z,80.19
2018-12-29T09:08:35.426Z,80.24
2018-12-29T09:11:03.976Z,80.19
2018-12-29T09:13:32.104Z,80.31
2018-12-29T09:16:00.485Z,80.18
2018-12-29T09:18:29.827Z,80.12
2018-12-29T09:20:58.280Z,79.89
2018-12-29T09:23:26.380Z,79.82
2018-12-29T09:25:54.707Z,79.75
2018-12-29T09:28:23.064Z,79.62
2018-12-29T09:30:51.631Z,79.50
2018-12-29T09:33:19.723Z,79.46
2018-12-29T09:35:48.052Z,79.65
2018-12-29T09:38:16.393Z,79.62
2018-12-29T09:40:44.729Z,79.72
2018-12-29T09:43:13.072Z,79.74
2018-12-29T09:45:41.402Z,79.77
2018-12-29T09:48:09.721Z,79.98
2018-12-29T09:50:38.264Z,80.16
2018-12-29T09:53:06.351Z,80.27
2018-12-29T09:55:34.681Z,80.39
2018-12-29T09:58:03.011Z,80.58
2018-12-29T10:00:31.326Z,80.73
2018-12-29T10:02:59.639Z,80.81
2018-12-29T10:05:27.957Z,80.70
2018-12-29T10:07:56.259Z,80.76
2018-12-29T10:10:24.584Z,80.86
2018-12-29T10:12:52.909Z,80.91
2018-12-29T10:15:21.226Z,80.99
2018-12-29T10:17:49.549Z,81.13
2018-12-29T10:20:17.888Z,81.18
2018-12-29T10:22:46.209Z,81.33
2018-12-29T10:25:14.543Z,81.75
2018-12-29T10:27:42.860Z,81.83
2018-12-29T10:30:11.195Z,82.02
2018-12-29T10:32:39.524Z,82.48
2018-12-29T10:35:07.846Z,82.58
2018-12-29T10:37:36.543Z,82.80
2018-12-29T10:40:04.873Z,82.90
2018-12-29T10:42:33.193Z,83.21
2018-12-29T10:45:01.616Z,83.17
2018-12-29T10:47:34.484Z,83.25
2018-12-29T10:49:58.304Z,83.29
2018-12-29T10:52:26.627Z,83.16
2018-12-29T10:54:55.418Z,83.43
2018-12-29T10:57:23.898Z,83.22
2018-12-29T10:59:52.237Z,83.25
2018-12-29T11:02:20.590Z,83.14
2018-12-29T11:04:49.144Z,83.07
2018-12-29T11:07:17.251Z,82.86
2018-12-29T11:09:45.583Z,82.47
2018-12-29T11:12:14.689Z,82.46
2018-12-29T11:14:43.039Z,82.41
2018-12-29T11:17:11.363Z,82.50
2018-12-29T11:19:39.749Z,82.62
2018-12-29T11:22:08.094Z,82.63
2018-12-29T11:24:37.389Z,82.51
2018-12-29T11:27:06.151Z,82.61
2018-12-29T11:29:34.474Z,82.63
2018-12-29T11:32:02.806Z,82.54
2018-12-29T11:34:31.529Z,82.79
2018-12-29T11:36:59.830Z,82.79
2018-12-29T11:39:28.143Z,83.04
2018-12-29T11:41:56.800Z,83.25
2018-12-29T11:44:25.160Z,83.57
2018-12-29T11:46:53.486Z,83.84
2018-12-29T11:49:21.826Z,84.02
2018-12-29T11:51:50.174Z,84.23
2018-12-29T11:54:18.479Z,84.34
2018-12-29T11:56:46.800Z,84.29
2018-12-29T11:59:15.129Z,84.10
2018-12-29T12:01:43.478Z,84.32
2018-12-29T12:04:11.849Z,84.30
2018-12-29T12:06:40.510Z,84.39
2018-12-29T12:09:09.767Z,84.30
2018-12-29T12:11:38.119Z,84.60
2018-12-29T12:14:06.500Z,84.68
2018-12-29T12:16:34.834Z,84.79
2018-12-29T12:19:03.470Z,84.78
2018-12-29T12:21:31.791Z,84.74
2018-12-29T12:24:01.272Z,84.70
2018-12-29T12:26:29.587Z,84.45
2018-12-29T12:28:58.027Z,84.47
2018-12-29T12:31:26.376Z,84.52
2018-12-29T12:33:55.553Z,84.61
2018-12-29T12:36:23.954Z,84.71
2018-12-29T12:38:52.288Z,84.70
2018-12-29T12:41:21.593Z,84.85
2018-12-29T12:43:49.909Z,84.94
2018-12-29T12:46:18.350Z,85.08
2018-12-29T12:48:46.742Z,85.04
2018-12-29T12:51:15.422Z,85.07
2018-12-29T12:53:43.743Z,85.20
2018-12-29T12:56:12.106Z,85.15
2018-12-29T12:58:40.917Z,85.27
2018-12-29T13:01:09.520Z,85.13
2018-12-29T13:03:37.846Z,85.27
2018-12-29T13:06:06.449Z,85.51
2018-12-29T13:08:34.831Z,85.70
2018-12-29T13:11:03.290Z,85.85
2018-12-29T13:13:31.620Z,85.67
2018-12-29T13:15:59.951Z,85.78
2018-12-29T13:18:28.553Z,86.21
2018-12-29T13:20:56.897Z,86.24
2018-12-29T13:23:25.530Z,86.58
2018-12-29T13:25:53.881Z,86.62
2018-12-29T13:28:22.237Z,86.59
2018-12-29T13:30:50.579Z,86.64
2018-12-29T13:33:18.911Z,86.66
2018-12-29T13:35:47.240Z,86.91
2018-12-29T13:38:15.574Z,87.04
2018-12-29T13:40:44.662Z,87.35
2018-12-29T13:43:12.208Z,87.35
2018-12-29T13:45:40.534Z,87.36
2018-12-29T13:48:08.865Z,87.31
2018-12-29T13:50:37.192Z,87.24
2018-12-29T13:53:05.505Z,87.38
2018-12-29T13:55:33.824Z,87.40
2018-12-29T13:58:02.143Z,87.46
2018-12-29T14:00:30.476Z,87.51
2018-12-29T14:02:58.803Z,87.64
2018-12-29T14:05:27.134Z,87.72
2018-12-29T14:07:55.451Z,87.97
2018-12-29T14:10:23.771Z,88.05
2018-12-29T14:12:52.104Z,88.24
2018-12-29T14:15:20.445Z,88.68
2018-12-29T14:17:48.801Z,88.41
2018-12-29T14:20:17.131Z,88.40
2018-12-29T14:22:45.457Z,88.26
2018-12-29T14:25:13.791Z,88.40
2018-12-29T14:27:42.110Z,88.29
2018-12-29T14:30:10.433Z,88.18
2018-12-29T14:32:38.763Z,88.19
2018-12-29T14:35:07.367Z,88.23
2018-12-29T14:37:35.690Z,88.27
2018-12-29T14:40:04.011Z,88.32
2018-12-29T14:42:32.344Z,88.36
2018-12-29T14:45:00.799Z,88.22
2018-12-29T14:47:29.135Z,88.27
2018-12-29T14:49:57.456Z,88.23
2018-12-29T14:52:25.789Z,88.36
2018-12-29T14:54:54.125Z,88.49
2018-12-29T14:57:22.462Z,88.52
2018-12-29T14:59:50.784Z,88.72
2018-12-29T15:02:19.122Z,89.03
2018-12-29T15:04:47.441Z,89.30
2018-12-29T15:07:15.770Z,89.06
2018-12-29T15:09:44.105Z,89.09
2018-12-29T15:12:12.424Z,89.13
2018-12-29T15:14:41.262Z,89.09
2018-12-29T15:17:09.341Z,88.92
2018-12-29T15:19:37.455Z,88.72
2018-12-29T15:22:05.877Z,88.75
2018-12-29T15:24:34.204Z,88.78
2018-12-29T15:27:02.511Z,88.58
2018-12-29T15:29:31.210Z,88.42
2018-12-29T15:31:59.519Z,88.32
2018-12-29T15:34:27.848Z,88.28
2018-12-29T15:36:56.213Z,88.28
2018-12-29T15:39:24.547Z,88.28
2018-12-29T15:41:53.162Z,88.40
2018-12-29T15:44:22.897Z,88.40
2018-12-29T15:46:49.742Z,88.38
2018-12-29T15:49:18.308Z,88.51
2018-12-29T15:51:46.437Z,88.88
2018-12-29T15:54:14.761Z,89.01
2018-12-29T15:56:43.094Z,89.05
2018-12-29T15:59:11.554Z,89.14
2018-12-29T16:01:39.943Z,89.08
2018-12-29T16:04:09.081Z,89.08
2018-12-29T16:06:37.601Z,89.12
2018-12-29T16:09:06.021Z,89.08
2018-12-29T16:11:34.257Z,89.09
2018-12-29T16:14:03.629Z,88.89
2018-12-29T16:16:31.940Z,88.86
2018-12-29T16:19:00.361Z,88.80
2018-12-29T16:21:28.710Z,88.53
2018-12-29T16:23:57.049Z,88.38
2018-12-29T16:26:25.400Z,88.11
2018-12-29T16:28:53.710Z,87.98
2018-12-29T16:31:22.054Z,87.93
2018-12-29T16:33:53.750Z,88.04
2018-12-29T16:36:18.721Z,88.03
2018-12-29T16:38:47.100Z,87.91
2018-12-29T16:41:15.461Z,87.73
2018-12-29T16:43:43.805Z,87.75
2018-12-29T16:46:12.140Z,87.61
2018-12-29T16:48:40.453Z,87.60
2018-12-29T16:51:08.862Z,87.63
2018-12-29T16:53:37.114Z,87.70
2018-12-29T16:56:05.444Z,87.55
2018-12-29T16:58:34.036Z,87.54
2018-12-29T17:01:02.138Z,87.61
2018-12-29T17:03:30.467Z,87.53
2018-12-29T17:05:58.786Z,87.61
2018-12-29T17:08:27.239Z,87.72
2018-12-29T17:10:55.455Z,87.84
2018-12-29T17:13:24.189Z,88.00
2018-12-29T17:15:52.533Z,88.02
2018-12-29T17:18:22.641Z,88.15
2018-12-29T17:20:49.187Z,88.18
2018-12-29T17:23:17.541Z,88.21
2018-12-29T17:25:45.884Z,88.28
2018-12-29T17:28:14.253Z,88.27
2018-12-29T17:30:42.582Z,88.21
2018-12-29T17:33:10.912Z,88.22
2018-12-29T17:35:39.241Z,88.20
2018-12-29T17:38:07.572Z,88.26
2018-12-29T17:40:35.896Z,88.33
2018-12-29T17:43:04.219Z,88.28
2018-12-29T17:45:32.844Z,88.22
2018-12-29T17:48:01.247Z,88.23
2018-12-29T17:50:29.605Z,88.28
2018-12-29T17:52:57.985Z,88.15
2018-12-29T17:55:26.375Z,88.04
2018-12-29T17:57:54.653Z,87.88
2018-12-29T18:00:22.986Z,87.77
2018-12-29T18:02:51.356Z,87.59
2018-12-29T18:05:19.701Z,87.55
2018-12-29T18:07:48.028Z,87.50
2018-12-29T18:10:16.364Z,87.44
2018-12-29T18:12:44.715Z,87.35
2018-12-29T18:15:13.051Z,87.28
2018-12-29T18:17:42.284Z,87.18
2018-12-29T18:20:10.597Z,87.05
2018-12-29T18:22:39.103Z,86.92
2018-12-29T18:25:07.406Z,86.87
2018-12-29T18:27:35.734Z,86.91
2018-12-29T18:30:04.071Z,86.96
2018-12-29T18:32:32.539Z,86.86
2018-12-29T18:35:00.862Z,86.96
2018-12-29T18:37:29.294Z,87.00
2018-12-29T18:39:57.620Z,87.25
2018-12-29T18:42:25.941Z,87.41
2018-12-29T18:44:54.276Z,87.50
2018-12-29T18:47:22.827Z,87.52
2018-12-29T18:49:50.939Z,87.67
2018-12-29T18:52:19.263Z,87.87
2018-12-29T18:54:47.595Z,87.99
2018-12-29T18:57:15.934Z,88.15
2018-12-29T18:59:44.271Z,88.25
2018-12-29T19:02:12.616Z,88.26
2018-12-29T19:04:40.948Z,88.33
2018-12-29T19:07:09.304Z,88.41
2018-12-29T19:09:37.627Z,88.33
2018-12-29T19:12:11.117Z,88.28
2018-12-29T19:14:34.292Z,88.13
2018-12-29T19:17:02.630Z,88.16
2018-12-29T19:19:30.964Z,88.09
2018-12-29T19:21:59.292Z,88.25
2018-12-29T19:24:27.965Z,88.26
2018-12-29T19:26:56.322Z,88.29
2018-12-29T19:29:24.660Z,88.30
2018-12-29T19:31:52.973Z,88.17
2018-12-29T19:34:21.303Z,88.29
2018-12-29T19:36:49.647Z,88.21
2018-12-29T19:39:17.976Z,88.32
2018-12-29T19:41:48.082Z,88.44
2018-12-29T19:44:14.620Z,88.68
2018-12-29T19:46:42.946Z,88.72
2018-12-29T19:49:11.487Z,88.76
2018-12-29T19:51:39.817Z,88.79
2018-12-29T19:54:08.149Z,88.71
2018-12-29T19:56:36.485Z,88.83
2018-12-29T19:59:04.824Z,88.79
2018-12-29T20:01:33.141Z,88.70
2018-12-29T20:04:01.489Z,88.67
2018-12-29T20:06:29.832Z,88.76
2018-12-29T20:08:58.172Z,88.77
2018-12-29T20:11:26.498Z,88.76
2018-12-29T20:13:54.856Z,88.79
2018-12-29T20:16:23.217Z,88.92
2018-12-29T20:18:52.471Z,88.97
2018-12-29T20:21:20.807Z,88.96
2018-12-29T20:23:49.150Z,88.81
2018-12-29T20:26:17.476Z,88.71
2018-12-29T20:28:45.823Z,88.79
2018-12-29T20:31:14.151Z,88.63
2018-12-29T20:33:42.493Z,88.51
2018-12-29T20:36:10.832Z,88.49
2018-12-29T20:38:39.166Z,88.36
2018-12-29T20:41:07.497Z,88.44
2018-12-29T20:43:35.852Z,88.33
2018-12-29T20:46:04.196Z,88.15
2018-12-29T20:48:32.537Z,88.16
2018-12-29T20:51:00.866Z,88.21
2018-12-29T20:53:29.198Z,88.15
2018-12-29T20:55:57.743Z,88.23
2018-12-29T20:58:25.850Z,88.12
2018-12-29T21:00:54.226Z,88.10
2018-12-29T21:03:22.574Z,88.25
2018-12-29T21:05:50.908Z,88.11
2018-12-29T21:08:19.230Z,87.96
2018-12-29T21:10:47.560Z,88.09
2018-12-29T21:13:15.910Z,87.88
2018-12-29T21:15:44.244Z,87.63
2018-12-29T21:18:12.662Z,87.72
2018-12-29T21:20:40.998Z,87.70
2018-12-29T21:23:09.329Z,87.79
2018-12-29T21:25:37.648Z,87.82
2018-12-29T21:28:05.970Z,87.92
2018-12-29T21:30:34.660Z,87.71
2018-12-29T21:33:03.005Z,87.55
2018-12-29T21:35:31.364Z,87.51
2018-12-29T21:37:59.663Z,87.42
2018-12-29T21:40:27.995Z,87.47
2018-12-29T21:42:57.556Z,87.13
2018-12-29T21:45:26.362Z,87.15
2018-12-29T21:47:54.693Z,87.26
2018-12-29T21:50:25.555Z,87.37
2018-12-29T21:52:52.274Z,87.18
2018-12-29T21:55:20.621Z,86.96
2018-12-29T21:57:48.969Z,86.86
2018-12-29T22:00:17.297Z,86.90
2018-12-29T22:02:45.644Z,87.01
2018-12-29T22:05:13.954Z,86.92
2018-12-29T22:07:43.160Z,86.74
2018-12-29T22:10:11.509Z,86.58
2018-12-29T22:12:40.063Z,86.72
2018-12-29T22:15:08.157Z,86.83
2018-12-29T22:17:36.481Z,86.68
2018-12-29T22:20:04.814Z,86.68
2018-12-29T22:22:33.157Z,86.72
2018-12-29T22:25:01.497Z,86.81
2018-12-29T22:27:30.004Z,86.66
2018-12-29T22:29:58.224Z,86.76
2018-12-29T22:32:26.655Z,86.75
2018-12-29T22:34:55.017Z,86.94
2018-12-29T22:37:23.374Z,86.85
2018-12-29T22:39:51.791Z,86.76
2018-12-29T22:42:20.127Z,86.80
2018-12-29T22:44:48.471Z,86.75
2018-12-29T22:47:16.863Z,86.65
2018-12-29T22:49:45.830Z,86.73
2018-12-29T22:52:14.944Z,86.87
2018-12-29T22:54:43.276Z,86.76
2018-12-29T22:57:11.603Z,86.83
2018-12-29T22:59:39.969Z,86.95
2018-12-29T23:02:08.497Z,87.03
2018-12-29T23:04:36.626Z,87.02
2018-12-29T23:07:04.948Z,87.01
2018-12-29T23:09:33.335Z,87.17
2018-12-29T23:12:01.656Z,87.15
2018-12-29T23:14:29.993Z,87.08
2018-12-29T23:16:59.326Z,87.08
2018-12-29T23:19:27.478Z,87.11
2018-12-29T23:21:55.822Z,87.24
2018-12-29T23:24:24.919Z,87.14
2018-12-29T23:26:53.240Z,87.02
2018-12-29T23:29:22.561Z,86.99
2018-12-29T23:31:50.893Z,86.95
2018-12-29T23:34:19.429Z,86.83
2018-12-29T23:36:47.764Z,86.82
2018-12-29T23:39:17.097Z,86.72
2018-12-29T23:41:45.474Z,86.73
2018-12-29T23:44:14.121Z,86.76
2018-12-29T23:46:47.792Z,86.73
2018-12-29T23:49:16.199Z,86.64
2018-12-29T23:51:44.797Z,86.64
2018-12-29T23:54:13.130Z,86.56
2018-12-29T23:56:41.455Z,86.57
2018-12-29T23:59:11.370Z,86.66
